Hardin, Kentucky
Current Conditions -  °F | °C
As of 1:55 PM on Friday 19 Dec 2014 (Local Time) from KCEY Reporting Station
Overcast Overcast  
Wind Chill: 36°   Ceiling: 3800
Heat Index: 39°   Visibility: 10mi
Dew Point: 28°   Wind: 5mph
Humidity: 65%   Direction: 30°NNE
Pressure: 30.26"   Gusts: NA
Location:  36.76°N, 88.3°W
Report Text: KCEY 191955Z AUTO 03004KT 10SM OVC038 04/M02 A3026 RMK AO1
Loading
Personal Weather Stations






























Interactive Weather Map New forecast layout! Learn more

10-Day Weather Forecast

Advertisements
Track Severe Weather on mobile